createdAt,value
2023-02-24T00:02:05.508Z,98207.00
2023-02-24T00:04:35.734Z,98205.00
2023-02-24T00:07:02.884Z,98205.00
2023-02-24T00:09:31.101Z,98200.00
2023-02-24T00:12:01.377Z,98198.00
2023-02-24T00:14:30.918Z,98206.00
2023-02-24T00:16:58.655Z,98191.00
2023-02-24T00:19:27.469Z,98191.00
2023-02-24T00:21:56.854Z,98181.00
2023-02-24T00:24:24.637Z,98187.00
2023-02-24T00:26:56.084Z,98189.00
2023-02-24T00:29:26.741Z,98179.00
2023-02-24T00:31:59.355Z,98175.00
2023-02-24T00:34:30.907Z,98182.00
2023-02-24T00:36:58.229Z,98169.00
2023-02-24T00:39:33.339Z,98170.00
2023-02-24T00:42:06.518Z,98159.00
2023-02-24T00:44:39.674Z,98155.00
2023-02-24T00:47:08.331Z,98160.00
2023-02-24T00:49:36.523Z,98159.00
2023-02-24T00:52:04.712Z,98157.00
2023-02-24T00:54:31.296Z,98162.00
2023-02-24T00:56:57.764Z,98152.00
2023-02-24T00:59:24.276Z,98151.00
2023-02-24T01:01:51.369Z,98148.00
2023-02-24T01:04:19.017Z,98146.00
2023-02-24T01:06:48.554Z,98147.00
2023-02-24T01:09:19.311Z,98145.00
2023-02-24T01:12:14.168Z,98147.00
2023-02-24T01:14:40.871Z,98148.00
2023-02-24T01:17:08.524Z,98138.00
2023-02-24T01:19:36.720Z,98136.00
2023-02-24T01:22:05.888Z,98142.00
2023-02-24T01:24:35.156Z,98142.00
2023-02-24T01:27:01.871Z,98134.00
2023-02-24T01:32:53.852Z,98134.00
2023-02-24T01:35:20.656Z,98134.00
2023-02-24T01:37:47.949Z,98130.00
2023-02-24T01:40:21.235Z,98126.00
2023-02-24T01:42:49.270Z,98131.00
2023-02-24T01:45:22.026Z,98123.00
2023-02-24T01:47:49.865Z,98126.00
2023-02-24T01:50:21.725Z,98120.00
2023-02-24T01:52:51.632Z,98110.00
2023-02-24T01:55:34.323Z,98120.00
2023-02-24T01:58:06.622Z,98109.00
2023-02-24T02:00:53.447Z,98108.00
2023-02-24T02:03:24.183Z,98108.00
2023-02-24T02:05:51.896Z,98105.00
2023-02-24T02:08:19.754Z,98100.00
2023-02-24T02:10:46.853Z,98103.00
2023-02-24T02:13:22.855Z,98098.00
2023-02-24T02:16:00.177Z,98099.00
2023-02-24T02:18:49.740Z,98088.00
2023-02-24T02:21:40.213Z,98085.00
2023-02-24T02:24:30.513Z,98090.00
2023-02-24T02:27:20.936Z,98080.00
2023-02-24T02:30:32.345Z,98086.00
2023-02-24T02:33:13.792Z,98078.00
2023-02-24T02:36:07.759Z,98079.00
2023-02-24T02:38:44.028Z,98069.00
2023-02-24T02:41:24.519Z,98073.00
2023-02-24T02:43:59.319Z,98063.00
2023-02-24T02:46:35.342Z,98058.00
2023-02-24T02:49:09.402Z,98046.00
2023-02-24T02:51:42.740Z,98056.00
2023-02-24T02:54:16.975Z,98052.00
2023-02-24T02:56:56.649Z,98043.00
2023-02-24T02:59:26.560Z,98047.00
2023-02-24T03:02:01.140Z,98051.00
2023-02-24T03:04:29.841Z,98050.00
2023-02-24T03:07:01.659Z,98046.00
2023-02-24T03:09:38.739Z,98041.00
2023-02-24T03:12:10.246Z,98043.00
2023-02-24T03:14:40.387Z,98042.00
2023-02-24T03:17:12.891Z,98041.00
2023-02-24T03:19:41.755Z,98032.00
2023-02-24T03:22:15.361Z,98038.00
2023-02-24T03:24:44.217Z,98041.00
2023-02-24T03:27:27.102Z,98033.00
2023-02-24T03:29:59.955Z,98039.00
2023-02-24T03:32:40.969Z,98031.00
2023-02-24T03:35:16.862Z,98023.00
2023-02-24T03:37:47.303Z,98024.00
2023-02-24T03:40:15.691Z,98029.00
2023-02-24T03:42:54.493Z,98024.00
2023-02-24T03:45:23.045Z,98024.00
2023-02-24T03:47:51.056Z,98033.00
2023-02-24T03:50:20.290Z,98018.00
2023-02-24T03:53:30.727Z,98032.00
2023-02-24T03:56:22.595Z,98025.00
2023-02-24T03:59:12.893Z,98018.00
2023-02-24T04:01:51.803Z,98022.00
2023-02-24T04:04:35.017Z,98026.00
2023-02-24T04:07:23.726Z,98017.00
2023-02-24T04:10:10.542Z,98012.00
2023-02-24T04:12:55.992Z,98016.00
2023-02-24T04:15:29.486Z,98016.00
2023-02-24T04:18:01.272Z,98011.00
2023-02-24T04:20:35.430Z,98012.00
2023-02-24T04:23:12.141Z,98006.00
2023-02-24T04:25:42.966Z,98010.00
2023-02-24T04:28:10.481Z,98000.00
2023-02-24T04:30:43.705Z,97987.00
2023-02-24T04:33:12.339Z,97984.00
2023-02-24T04:35:40.398Z,97987.00
2023-02-24T04:38:07.353Z,97982.00
2023-02-24T04:40:34.686Z,97985.00
2023-02-24T04:43:01.182Z,97979.00
2023-02-24T04:45:29.961Z,97975.00
2023-02-24T04:48:02.116Z,97979.00
2023-02-24T04:50:35.114Z,97969.00
2023-02-24T04:53:09.234Z,97960.00
2023-02-24T04:55:42.318Z,97953.00
2023-02-24T04:58:13.525Z,97949.00
2023-02-24T05:00:41.849Z,97953.00
2023-02-24T05:03:11.288Z,97946.00
2023-02-24T05:05:38.222Z,97940.00
2023-02-24T05:08:07.678Z,97944.00
2023-02-24T05:10:41.571Z,97928.00
2023-02-24T05:13:09.177Z,97925.00
2023-02-24T05:15:40.662Z,97921.00
2023-02-24T05:18:31.069Z,97922.00
2023-02-24T05:21:16.107Z,97921.00
2023-02-24T05:23:45.306Z,97925.00
2023-02-24T05:26:16.786Z,97915.00
2023-02-24T05:28:49.051Z,97908.00
2023-02-24T05:31:18.833Z,97900.00
2023-02-24T05:33:48.449Z,97907.00
2023-02-24T05:36:18.422Z,97907.00
2023-02-24T05:38:47.135Z,97902.00
2023-02-24T05:41:22.856Z,97901.00
2023-02-24T05:43:54.982Z,97885.00
2023-02-24T05:46:29.916Z,97891.00
2023-02-24T05:49:01.384Z,97888.00
2023-02-24T05:51:35.162Z,97884.00
2023-02-24T05:54:10.064Z,97880.00
2023-02-24T05:56:39.206Z,97876.00
2023-02-24T05:59:08.992Z,97881.00
2023-02-24T06:01:41.237Z,97878.00
2023-02-24T06:04:09.063Z,97877.00
2023-02-24T06:06:38.049Z,97885.00
2023-02-24T06:09:09.000Z,97876.00
2023-02-24T06:11:35.502Z,97877.00
2023-02-24T06:14:02.874Z,97883.00
2023-02-24T06:16:30.230Z,97877.00
2023-02-24T06:18:58.166Z,97871.00
2023-02-24T06:21:29.114Z,97873.00
2023-02-24T06:24:00.240Z,97877.00
2023-02-24T06:26:29.805Z,97875.00
2023-02-24T06:28:58.740Z,97867.00
2023-02-24T06:31:27.277Z,97863.00
2023-02-24T06:33:54.201Z,97869.00
2023-02-24T06:36:22.073Z,97866.00
2023-02-24T06:38:52.549Z,97860.00
2023-02-24T06:41:19.237Z,97869.00
2023-02-24T06:43:47.027Z,97868.00
2023-02-24T06:46:15.872Z,97871.00
2023-02-24T06:48:42.611Z,97868.00
2023-02-24T06:51:13.596Z,97872.00
2023-02-24T06:53:43.555Z,97883.00
2023-02-24T06:56:15.346Z,97869.00
2023-02-24T06:58:43.731Z,97863.00
2023-02-24T07:01:17.168Z,97871.00
2023-02-24T07:04:03.561Z,97864.00
2023-02-24T07:06:38.198Z,97873.00
2023-02-24T07:09:08.562Z,97863.00
2023-02-24T07:11:36.383Z,97864.00
2023-02-24T07:14:05.739Z,97864.00
2023-02-24T07:16:34.347Z,97869.00
2023-02-24T07:19:05.088Z,97873.00
2023-02-24T07:21:39.727Z,97866.00
2023-02-24T07:24:13.320Z,97877.00
2023-02-24T07:26:41.687Z,97868.00
2023-02-24T07:29:12.161Z,97866.00
2023-02-24T07:31:39.692Z,97854.00
2023-02-24T07:34:06.421Z,97858.00
2023-02-24T07:36:39.051Z,97863.00
2023-02-24T07:39:09.247Z,97867.00
2023-02-24T07:41:37.576Z,97869.00
2023-02-24T07:44:08.522Z,97863.00
2023-02-24T07:46:35.084Z,97859.00
2023-02-24T07:49:03.458Z,97857.00
2023-02-24T07:51:30.846Z,97859.00
2023-02-24T07:54:00.243Z,97855.00
2023-02-24T07:56:29.297Z,97851.00
2023-02-24T07:59:02.081Z,97858.00
2023-02-24T08:01:31.075Z,97852.00
2023-02-24T08:04:08.032Z,97855.00
2023-02-24T08:06:45.463Z,97853.00
2023-02-24T08:09:20.473Z,97846.00
2023-02-24T08:11:52.327Z,97843.00
2023-02-24T08:14:24.653Z,97844.00
2023-02-24T08:16:59.163Z,97847.00
2023-02-24T08:19:32.668Z,97844.00
2023-02-24T08:22:20.311Z,97839.00
2023-02-24T08:25:00.588Z,97829.00
2023-02-24T08:27:32.069Z,97829.00
2023-02-24T08:30:00.896Z,97826.00
2023-02-24T08:32:34.018Z,97815.00
2023-02-24T08:35:03.374Z,97821.00
2023-02-24T08:37:39.456Z,97808.00
2023-02-24T08:40:29.619Z,97820.00
2023-02-24T08:43:19.151Z,97808.00
2023-02-24T08:45:59.323Z,97815.00
2023-02-24T08:48:38.549Z,97803.00
2023-02-24T08:51:10.251Z,97810.00
2023-02-24T08:53:40.508Z,97807.00
2023-02-24T08:56:11.321Z,97800.00
2023-02-24T08:58:47.324Z,97807.00
2023-02-24T09:01:24.036Z,97806.00
2023-02-24T09:03:57.067Z,97791.00
2023-02-24T09:06:37.953Z,97781.00
2023-02-24T09:09:22.998Z,97787.00
2023-02-24T09:11:59.885Z,97791.00
2023-02-24T09:14:36.318Z,97798.00
2023-02-24T09:17:06.836Z,97795.00
2023-02-24T09:19:48.179Z,97801.00
2023-02-24T09:22:32.530Z,97795.00
2023-02-24T09:25:18.293Z,97788.00
2023-02-24T09:27:52.291Z,97782.00
2023-02-24T09:30:36.081Z,97779.00
2023-02-24T09:33:20.946Z,97768.00
2023-02-24T09:35:51.595Z,97759.00
2023-02-24T09:38:36.163Z,97755.00
2023-02-24T09:41:18.447Z,97765.00
2023-02-24T09:43:45.415Z,97747.00
2023-02-24T09:46:15.820Z,97746.00
2023-02-24T09:48:54.421Z,97756.00
2023-02-24T09:51:22.998Z,97746.00
2023-02-24T09:53:53.631Z,97747.00
2023-02-24T09:56:42.347Z,97745.00
2023-02-24T09:59:26.288Z,97748.00
2023-02-24T10:02:10.133Z,97737.00
2023-02-24T10:04:48.960Z,97730.00
2023-02-24T10:07:20.068Z,97726.00
2023-02-24T10:10:18.712Z,97730.00
2023-02-24T10:12:58.404Z,97729.00
2023-02-24T10:16:06.208Z,97721.00
2023-02-24T10:18:41.192Z,97712.00
2023-02-24T10:21:16.313Z,97710.00
2023-02-24T10:23:56.422Z,97704.00
2023-02-24T10:26:34.709Z,97702.00
2023-02-24T10:29:18.943Z,97707.00
2023-02-24T10:31:48.175Z,97706.00
2023-02-24T10:34:24.064Z,97707.00
2023-02-24T10:36:51.716Z,97700.00
2023-02-24T10:39:25.510Z,97697.00
2023-02-24T10:41:57.322Z,97686.00
2023-02-24T10:44:36.152Z,97692.00
2023-02-24T10:47:17.786Z,97687.00
2023-02-24T10:49:58.455Z,97689.00
2023-02-24T10:52:51.097Z,97687.00
2023-02-24T10:55:49.865Z,97680.00
2023-02-24T10:58:29.029Z,97682.00
2023-02-24T11:01:21.747Z,97672.00
2023-02-24T11:04:22.620Z,97671.00
2023-02-24T11:06:53.933Z,97665.00
2023-02-24T11:09:28.884Z,97666.00
2023-02-24T11:12:16.489Z,97652.00
2023-02-24T11:15:16.328Z,97655.00
2023-02-24T11:18:16.322Z,97654.00
2023-02-24T11:20:49.683Z,97643.00
2023-02-24T11:23:22.198Z,97637.00
2023-02-24T11:25:58.154Z,97633.00
2023-02-24T11:28:48.887Z,97623.00
2023-02-24T11:31:25.139Z,97622.00
2023-02-24T11:34:12.118Z,97610.00
2023-02-24T11:37:06.723Z,97601.00
2023-02-24T11:40:02.237Z,97600.00
2023-02-24T11:42:43.645Z,97596.00
2023-02-24T11:45:34.972Z,97601.00
2023-02-24T11:48:25.218Z,97585.00
2023-02-24T11:51:20.233Z,97574.00
2023-02-24T11:54:12.799Z,97574.00
2023-02-24T11:56:43.940Z,97573.00
2023-02-24T11:59:22.478Z,97559.00
2023-02-24T12:02:10.819Z,97569.00
2023-02-24T12:05:01.811Z,97557.00
2023-02-24T12:08:17.246Z,97564.00
2023-02-24T12:10:49.916Z,97545.00
2023-02-24T12:13:29.500Z,97545.00
2023-02-24T12:16:07.768Z,97542.00
2023-02-24T12:18:37.083Z,97531.00
2023-02-24T12:21:13.278Z,97529.00
2023-02-24T12:23:42.906Z,97519.00
2023-02-24T12:26:21.733Z,97522.00
2023-02-24T12:29:30.006Z,97515.00
2023-02-24T12:32:10.858Z,97517.00
2023-02-24T12:35:00.226Z,97503.00
2023-02-24T12:38:05.158Z,97503.00
2023-02-24T12:41:16.274Z,97492.00
2023-02-24T12:44:11.873Z,97492.00
2023-02-24T12:46:39.994Z,97482.00
2023-02-24T12:49:43.671Z,97475.00
2023-02-24T12:52:24.722Z,97468.00
2023-02-24T12:55:00.383Z,97466.00
2023-02-24T12:57:47.270Z,97466.00
2023-02-24T13:00:29.713Z,97462.00
2023-02-24T13:03:08.786Z,97461.00
2023-02-24T13:05:52.200Z,97454.00
2023-02-24T13:08:28.426Z,97457.00
2023-02-24T13:11:21.498Z,97441.00
2023-02-24T13:14:05.563Z,97430.00
2023-02-24T13:16:34.528Z,97435.00
2023-02-24T13:19:25.669Z,97420.00
2023-02-24T13:22:13.891Z,97410.00
2023-02-24T13:24:43.033Z,97407.00
2023-02-24T13:27:12.608Z,97412.00
2023-02-24T13:30:00.943Z,97399.00
2023-02-24T13:32:31.847Z,97400.00
2023-02-24T13:35:05.484Z,97402.00
2023-02-24T13:37:31.989Z,97402.00
2023-02-24T13:39:58.793Z,97394.00
2023-02-24T13:42:31.711Z,97389.00
2023-02-24T13:45:10.378Z,97393.00
2023-02-24T13:48:14.531Z,97375.00
2023-02-24T13:51:13.696Z,97388.00
2023-02-24T13:54:07.713Z,97392.00
2023-02-24T13:56:48.535Z,97387.00
2023-02-24T13:59:36.429Z,97384.00
2023-02-24T14:02:16.902Z,97394.00
2023-02-24T14:04:56.188Z,97383.00
2023-02-24T14:07:26.045Z,97391.00
2023-02-24T14:09:59.418Z,97387.00
2023-02-24T14:12:32.422Z,97394.00
2023-02-24T14:14:59.389Z,97388.00
2023-02-24T14:17:36.910Z,97386.00
2023-02-24T14:20:06.653Z,97382.00
2023-02-24T14:22:34.621Z,97377.00
2023-02-24T14:25:05.139Z,97375.00
2023-02-24T14:27:32.075Z,97377.00
2023-02-24T14:29:58.619Z,97354.00
2023-02-24T14:32:27.265Z,97360.00
2023-02-24T14:34:54.997Z,97355.00
2023-02-24T14:37:30.789Z,97358.00
2023-02-24T14:39:59.709Z,97355.00
2023-02-24T14:42:27.955Z,97363.00
2023-02-24T14:44:57.642Z,97352.00
2023-02-24T14:47:27.243Z,97354.00
2023-02-24T14:49:59.817Z,97347.00
2023-02-24T14:52:53.472Z,97353.00
2023-02-24T14:55:29.910Z,97354.00
2023-02-24T14:58:20.003Z,97344.00
2023-02-24T15:01:02.421Z,97339.00
2023-02-24T15:03:37.285Z,97343.00
2023-02-24T15:06:13.097Z,97339.00
2023-02-24T15:08:42.864Z,97333.00
2023-02-24T15:11:30.945Z,97329.00
2023-02-24T15:13:59.847Z,97332.00
2023-02-24T15:16:36.958Z,97326.00
2023-02-24T15:19:04.189Z,97327.00
2023-02-24T15:21:40.264Z,97331.00
2023-02-24T15:24:29.420Z,97327.00
2023-02-24T15:26:57.890Z,97315.00
2023-02-24T15:29:27.752Z,97309.00
2023-02-24T15:31:56.131Z,97315.00
2023-02-24T15:34:27.103Z,97302.00
2023-02-24T15:37:01.088Z,97299.00
2023-02-24T15:39:31.215Z,97301.00
2023-02-24T15:42:28.805Z,97303.00
2023-02-24T15:45:00.432Z,97293.00
2023-02-24T15:47:40.844Z,97291.00
2023-02-24T15:50:07.833Z,97293.00
2023-02-24T15:52:36.339Z,97290.00
2023-02-24T15:55:04.247Z,97293.00
2023-02-24T15:57:32.828Z,97295.00
2023-02-24T15:59:59.866Z,97290.00
2023-02-24T16:02:27.979Z,97290.00
2023-02-24T16:04:54.406Z,97292.00
2023-02-24T16:07:30.414Z,97291.00
2023-02-24T16:09:59.537Z,97281.00
2023-02-24T16:12:33.468Z,97283.00
2023-02-24T16:15:03.766Z,97272.00
2023-02-24T16:17:37.582Z,97271.00
2023-02-24T16:20:09.071Z,97270.00
2023-02-24T16:22:35.970Z,97265.00
2023-02-24T16:25:03.329Z,97264.00
2023-02-24T16:27:30.524Z,97269.00
2023-02-24T16:29:58.109Z,97254.00
2023-02-24T16:32:26.946Z,97257.00
2023-02-24T16:34:53.877Z,97259.00
2023-02-24T16:37:23.598Z,97259.00
2023-02-24T16:39:50.828Z,97268.00
2023-02-24T16:42:18.604Z,97274.00
2023-02-24T16:44:48.901Z,97268.00
2023-02-24T16:47:20.470Z,97271.00
2023-02-24T16:49:47.077Z,97264.00
2023-02-24T16:52:13.822Z,97268.00
2023-02-24T16:54:40.483Z,97266.00
2023-02-24T16:57:07.015Z,97278.00
2023-02-24T16:59:33.579Z,97267.00
2023-02-24T17:02:02.096Z,97266.00
2023-02-24T17:04:29.349Z,97265.00
2023-02-24T17:06:55.892Z,97276.00
2023-02-24T17:09:22.639Z,97278.00
2023-02-24T17:11:49.228Z,97280.00
2023-02-24T17:14:20.721Z,97277.00
2023-02-24T17:16:47.748Z,97276.00
2023-02-24T17:19:14.740Z,97279.00
2023-02-24T17:21:44.276Z,97272.00
2023-02-24T17:24:19.308Z,97278.00
2023-02-24T17:26:46.475Z,97282.00
2023-02-24T17:29:14.639Z,97283.00
2023-02-24T17:31:42.295Z,97287.00
2023-02-24T17:34:09.952Z,97281.00
2023-02-24T17:36:36.472Z,97286.00
2023-02-24T17:39:03.310Z,97295.00
2023-02-24T17:41:29.896Z,97290.00
2023-02-24T17:43:56.618Z,97289.00
2023-02-24T17:46:23.602Z,97293.00
2023-02-24T17:48:51.627Z,97289.00
2023-02-24T17:51:19.874Z,97287.00
2023-02-24T17:53:46.413Z,97288.00
2023-02-24T17:56:12.966Z,97288.00
2023-02-24T17:58:40.027Z,97297.00
2023-02-24T18:01:07.424Z,97297.00
2023-02-24T18:03:35.581Z,97303.00
2023-02-24T18:06:11.654Z,97302.00
2023-02-24T18:08:39.477Z,97308.00
2023-02-24T18:11:07.763Z,97302.00
2023-02-24T18:13:34.746Z,97300.00
2023-02-24T18:16:01.799Z,97303.00
2023-02-24T18:18:30.221Z,97302.00
2023-02-24T18:21:02.005Z,97312.00
2023-02-24T18:23:29.072Z,97309.00
2023-02-24T18:25:55.573Z,97308.00
2023-02-24T18:28:22.278Z,97310.00
2023-02-24T18:30:48.924Z,97307.00
2023-02-24T18:33:15.656Z,97309.00
2023-02-24T18:35:42.281Z,97306.00
2023-02-24T18:38:08.767Z,97315.00
2023-02-24T18:40:35.272Z,97313.00
2023-02-24T18:43:01.759Z,97309.00
2023-02-24T18:45:28.267Z,97310.00
2023-02-24T18:47:54.814Z,97295.00
2023-02-24T18:50:25.025Z,97296.00
2023-02-24T18:52:51.987Z,97292.00
2023-02-24T18:55:19.719Z,97304.00
2023-02-24T18:57:47.358Z,97312.00
2023-02-24T19:00:14.627Z,97319.00
2023-02-24T19:02:41.216Z,97316.00
2023-02-24T19:05:08.379Z,97327.00
2023-02-24T19:07:34.905Z,97315.00
2023-02-24T19:10:01.440Z,97315.00
2023-02-24T19:12:28.000Z,97323.00
2023-02-24T19:14:54.470Z,97325.00
2023-02-24T19:17:21.043Z,97328.00
2023-02-24T19:19:47.566Z,97327.00
2023-02-24T19:22:14.091Z,97334.00
2023-02-24T19:24:40.659Z,97334.00
2023-02-24T19:27:08.610Z,97334.00
2023-02-24T19:29:35.524Z,97333.00
2023-02-24T19:32:02.375Z,97339.00
2023-02-24T19:34:29.025Z,97350.00
2023-02-24T19:36:55.560Z,97352.00
2023-02-24T19:39:22.195Z,97350.00
2023-02-24T19:41:49.892Z,97351.00
2023-02-24T19:44:16.816Z,97351.00
2023-02-24T19:46:43.443Z,97354.00
2023-02-24T19:49:10.074Z,97355.00
2023-02-24T19:51:36.722Z,97358.00
2023-02-24T19:54:05.723Z,97362.00
2023-02-24T19:56:35.846Z,97369.00
2023-02-24T19:59:05.912Z,97369.00
2023-02-24T20:01:32.638Z,97375.00
2023-02-24T20:04:01.876Z,97364.00
2023-02-24T20:06:35.598Z,97370.00
2023-02-24T20:09:08.594Z,97366.00
2023-02-24T20:11:39.159Z,97377.00
2023-02-24T20:14:07.559Z,97373.00
2023-02-24T20:16:36.808Z,97381.00
2023-02-24T20:19:05.937Z,97380.00
2023-02-24T20:21:33.356Z,97377.00
2023-02-24T20:24:01.111Z,97378.00
2023-02-24T20:26:28.898Z,97389.00
2023-02-24T20:28:55.666Z,97387.00
2023-02-24T20:31:23.803Z,97383.00
2023-02-24T20:33:50.635Z,97386.00
2023-02-24T20:36:23.571Z,97397.00
2023-02-24T20:38:51.233Z,97392.00
2023-02-24T20:41:20.348Z,97393.00
2023-02-24T20:43:47.472Z,97388.00
2023-02-24T20:46:23.904Z,97391.00
2023-02-24T20:48:51.587Z,97372.00
2023-02-24T20:51:18.238Z,97368.00
2023-02-24T20:53:56.555Z,97377.00
2023-02-24T20:56:25.647Z,97387.00
2023-02-24T20:58:53.991Z,97386.00
2023-02-24T21:01:21.304Z,97373.00
2023-02-24T21:03:48.304Z,97381.00
2023-02-24T21:06:17.060Z,97385.00
2023-02-24T21:08:44.629Z,97386.00
2023-02-24T21:11:12.926Z,97377.00
2023-02-24T21:13:43.399Z,97372.00
2023-02-24T21:16:11.888Z,97383.00
2023-02-24T21:18:40.506Z,97382.00
2023-02-24T21:21:08.049Z,97387.00
2023-02-24T21:23:35.815Z,97388.00
2023-02-24T21:26:02.400Z,97386.00
2023-02-24T21:28:29.109Z,97390.00
2023-02-24T21:30:55.699Z,97407.00
2023-02-24T21:33:22.278Z,97389.00
2023-02-24T21:36:03.279Z,97401.00
2023-02-24T21:38:34.036Z,97400.00
2023-02-24T21:41:07.298Z,97392.00
2023-02-24T21:43:34.520Z,97394.00
2023-02-24T21:46:03.006Z,97387.00
2023-02-24T21:48:29.587Z,97377.00
2023-02-24T21:51:04.176Z,97391.00
2023-02-24T21:53:35.563Z,97391.00
2023-02-24T21:56:10.834Z,97388.00
2023-02-24T21:58:39.382Z,97397.00
2023-02-24T22:01:14.280Z,97405.00
2023-02-24T22:03:41.282Z,97409.00
2023-02-24T22:06:10.139Z,97405.00
2023-02-24T22:08:37.799Z,97418.00
2023-02-24T22:11:04.456Z,97422.00
2023-02-24T22:13:30.931Z,97426.00
2023-02-24T22:16:01.886Z,97418.00
2023-02-24T22:18:29.121Z,97414.00
2023-02-24T22:20:55.655Z,97419.00
2023-02-24T22:23:22.167Z,97407.00
2023-02-24T22:25:48.728Z,97407.00
2023-02-24T22:28:15.203Z,97411.00
2023-02-24T22:30:41.721Z,97404.00
2023-02-24T22:33:08.311Z,97409.00
2023-02-24T22:35:35.402Z,97408.00
2023-02-24T22:38:02.278Z,97400.00
2023-02-24T22:40:28.776Z,97410.00
2023-02-24T22:42:55.380Z,97419.00
2023-02-24T22:45:22.356Z,97429.00
2023-02-24T22:47:48.879Z,97427.00
2023-02-24T22:50:15.675Z,97429.00
2023-02-24T22:52:42.166Z,97423.00
2023-02-24T22:55:09.982Z,97424.00
2023-02-24T22:57:36.525Z,97428.00
2023-02-24T23:00:04.986Z,97419.00
2023-02-24T23:02:31.491Z,97427.00
2023-02-24T23:04:58.061Z,97429.00
2023-02-24T23:07:24.528Z,97425.00
2023-02-24T23:09:52.916Z,97426.00
2023-02-24T23:12:20.731Z,97421.00
2023-02-24T23:14:47.291Z,97430.00
2023-02-24T23:17:13.763Z,97435.00
2023-02-24T23:19:40.234Z,97439.00
2023-02-24T23:22:07.936Z,97443.00
2023-02-24T23:24:34.710Z,97447.00
2023-02-24T23:27:01.239Z,97443.00
2023-02-24T23:29:27.816Z,97440.00
2023-02-24T23:31:54.496Z,97454.00
2023-02-24T23:34:21.215Z,97463.00
2023-02-24T23:36:47.826Z,97455.00
2023-02-24T23:39:16.641Z,97446.00
2023-02-24T23:41:43.257Z,97459.00
2023-02-24T23:44:10.068Z,97461.00
2023-02-24T23:46:37.080Z,97457.00
2023-02-24T23:49:04.610Z,97461.00
2023-02-24T23:51:46.998Z,97471.00
2023-02-24T23:54:15.068Z,97471.00
2023-02-24T23:56:41.649Z,97463.00
2023-02-24T23:59:08.324Z,97477.00
